Ripley, Illinois
Current Conditions -  °F | °C
As of 2:35 AM on Sunday 21 Dec 2014 (Local Time) from KPPQ Reporting Station
Overcast Overcast  
Wind Chill: 34°   Ceiling: 2700
Heat Index: 38°   Visibility: 7mi
Dew Point: 35°   Wind: 5mph
Humidity: 88%   Direction: 160°SSE
Pressure: 30.2"   Gusts: NA
Location:  39.9985°N, 90.6925°W
Report Text: KPPQ 210835Z AUTO 16004KT 7SM OVC027 03/02 A3020 RMK AO2 T00330015
Loading
Personal Weather Stations






























Interactive Weather Map New forecast layout! Learn more

10-Day Weather Forecast

Advertisements
Track Severe Weather on mobile